Pagrindinis puslapis
METAR-TAF:

METAR-TAF

Oro uostai :

Chulitna, Aliaska, Jungtinės Amerikos Valstijos

platuma: 62-53N, ilguma: 149-50W, Aukštis: 381 m

Dabartinis oras

Ataskaita buvo paskelbta 2 valandos ir 3 minutes, ne 18:53 UTC
Vėjas 5 kt iš Šiaurės/Šiaurės Rytų
Temperatūra -5°C
Drėgmė 68%
Slėgis 1030 hPa
Matomumas: 48.3 km
Giedras dangus

METAR: PAEC 221853Z 02005KT 30SM SKC M05/M10 A3042 RMK NOSPECI

Laikas: 12:56 (20:56 UTC)


TAF: trūkstamas

Orai ataskaitas ir orų prognozės (METAR, TAF).

turimą stotys yra geltonos ir raudonos taškus žemėlapyje.

Perkelti pele per norėdami pamatyti stoties vardą.

Tada spustelėkite, norėdami matyti oro stebėjimo ir prognozės.

Norėdami pakeisti žemėlapį: spustelėkite ant žalios mygtukų su juodo kryžiaus žemyn,; žalią mygtuką su brūkšneliu, jei norite nutolinti; arba žalių rodyklių gretimoms žemėlapius.


METAR-TAF: